Time;durP1;ratioP1;P1;durP2;ratioP2;P2;SDS_P1;SDS_P2;PMS_P1;PMS_P2;Temp;Humidity;BMP_temperature;BMP_pressure;BME280_temperature;BME280_humidity;BME280_pressure;Samples;Min_cycle;Max_cycle;Signal;HPM_P1;HPM_P2
2021/10/31 00:01:13;;;;;;;;;;;19.60;58.50;;;;;;5005326;28;19965;-48
2021/10/31 00:03:40;;;;;;;;;;;19.60;58.50;;;;;;4995370;28;19932;-50
2021/10/31 00:06:07;;;;;;;;;;;19.60;58.50;;;;;;5002700;28;19926;-48
2021/10/31 00:08:34;;;;;;;;;;;19.60;58.50;;;;;;5010458;28;20488;-52
2021/10/31 00:11:02;;;;;;;;;;;19.60;58.50;;;;;;5012974;28;19976;-49
2021/10/31 00:13:30;;;;;;;;;;;19.60;58.50;;;;;;5012558;28;20012;-47
2021/10/31 00:15:58;;;;;;;;;;;19.60;58.50;;;;;;5012745;28;20324;-50
2021/10/31 00:18:25;;;;;;;;;;;19.60;58.50;;;;;;5012565;28;20044;-48
2021/10/31 00:20:52;;;;;;;;;;;19.60;58.50;;;;;;5012362;28;19949;-50
2021/10/31 00:23:19;;;;;;;;;;;19.60;58.50;;;;;;5012112;28;19960;-48
2021/10/31 00:25:46;;;;;;;;;;;19.60;58.50;;;;;;5012366;28;20382;-50
2021/10/31 00:28:13;;;;;;;;;;;19.60;58.50;;;;;;5011973;28;20391;-47
2021/10/31 00:30:40;;;;;;;;;;;19.60;58.50;;;;;;5011973;28;19983;-50
2021/10/31 00:33:07;;;;;;;;;;;19.60;58.50;;;;;;5013057;28;19926;-49
2021/10/31 00:35:34;;;;;;;;;;;19.60;58.50;;;;;;5016226;28;20016;-50
2021/10/31 00:38:01;;;;;;;;;;;19.60;58.50;;;;;;5001597;28;20370;-49
2021/10/31 00:40:29;;;;;;;;;;;19.60;58.50;;;;;;5014490;28;19984;-49
2021/10/31 00:42:56;;;;;;;;;;;19.60;58.50;;;;;;5016268;28;19973;-48
2021/10/31 00:45:23;;;;;;;;;;;19.60;58.50;;;;;;5013037;28;20027;-49
2021/10/31 00:47:50;;;;;;;;;;;19.60;58.50;;;;;;5005336;28;19977;-48
2021/10/31 00:50:18;;;;;;;;;;;19.60;58.50;;;;;;5010346;28;19929;-49
2021/10/31 00:52:45;;;;;;;;;;;19.60;58.50;;;;;;5006823;28;19949;-50
2021/10/31 00:55:13;;;;;;;;;;;19.60;58.50;;;;;;5008211;28;20456;-49
2021/10/31 00:57:41;;;;;;;;;;;19.60;58.50;;;;;;5016138;28;20378;-54
2021/10/31 01:00:10;;;;;;;;;;;19.60;58.50;;;;;;5009448;28;19930;-49
2021/10/31 01:02:39;;;;;;;;;;;19.60;58.50;;;;;;5004715;28;19925;-48
2021/10/31 01:05:08;;;;;;;;;;;19.60;58.50;;;;;;5014836;28;20378;-53
2021/10/31 01:07:35;;;;;;;;;;;19.60;58.50;;;;;;5015712;28;19932;-53
2021/10/31 01:10:08;;;;;;;;;;;19.60;58.50;;;;;;5012308;28;19965;-47
2021/10/31 01:12:54;;;;;;;;;;;19.60;58.50;;;;;;5016321;28;20401;-50
2021/10/31 01:15:36;;;;;;;;;;;19.60;58.50;;;;;;5010532;28;19934;-53
2021/10/31 01:18:03;;;;;;;;;;;19.60;58.50;;;;;;5015553;28;20285;-54
2021/10/31 01:20:36;;;;;;;;;;;19.60;58.50;;;;;;5010353;28;19960;-48
2021/10/31 01:23:12;;;;;;;;;;;19.60;58.50;;;;;;4999810;28;19930;-50
2021/10/31 01:25:56;;;;;;;;;;;19.60;58.50;;;;;;4999481;28;20367;-53
2021/10/31 01:28:23;;;;;;;;;;;19.60;58.50;;;;;;5005057;28;20000;-52
2021/10/31 01:31:02;;;;;;;;;;;19.60;58.50;;;;;;5016695;28;19925;-53
2021/10/31 01:33:30;;;;;;;;;;;19.60;58.50;;;;;;5008352;28;20358;-51
2021/10/31 01:36:04;;;;;;;;;;;19.60;58.50;;;;;;5009285;28;19925;-52
2021/10/31 01:38:31;;;;;;;;;;;19.60;58.50;;;;;;4999226;28;19965;-52
2021/10/31 01:41:30;;;;;;;;;;;19.60;58.50;;;;;;5007057;28;19929;-54
2021/10/31 01:44:02;;;;;;;;;;;19.60;58.50;;;;;;4973170;28;19977;-51
2021/10/31 01:46:47;;;;;;;;;;;19.60;58.50;;;;;;4972853;28;20025;-50
2021/10/31 01:49:22;;;;;;;;;;;19.60;58.40;;;;;;4973694;28;19970;-53
2021/10/31 01:51:49;;;;;;;;;;;19.60;58.50;;;;;;4973890;28;19933;-52
2021/10/31 01:54:19;;;;;;;;;;;19.60;58.40;;;;;;4973620;28;19985;-52
2021/10/31 01:56:55;;;;;;;;;;;19.60;58.50;;;;;;4973681;28;19973;-52
2021/10/31 01:59:24;;;;;;;;;;;19.60;58.50;;;;;;4973729;28;20389;-54
2021/10/31 02:01:51;;;;;;;;;;;19.50;58.40;;;;;;4973634;28;19948;-52
2021/10/31 02:04:21;;;;;;;;;;;19.60;58.50;;;;;;4973757;28;20537;-48
2021/10/31 02:06:50;;;;;;;;;;;19.60;58.50;;;;;;4973558;28;19997;-48
2021/10/31 02:09:20;;;;;;;;;;;19.60;58.50;;;;;;4973317;28;19980;-49
2021/10/31 02:11:47;;;;;;;;;;;19.60;58.50;;;;;;4973519;28;19926;-50
2021/10/31 02:14:14;;;;;;;;;;;19.60;58.50;;;;;;4973653;28;19936;-49
2021/10/31 02:16:42;;;;;;;;;;;19.50;59.00;;;;;;4973439;28;19932;-50
2021/10/31 02:19:13;;;;;;;;;;;19.60;58.50;;;;;;4985867;28;20028;-52
2021/10/31 02:21:40;;;;;;;;;;;19.60;58.50;;;;;;5009277;28;19973;-50
2021/10/31 02:24:08;;;;;;;;;;;19.60;58.50;;;;;;5002941;28;20389;-48
2021/10/31 02:26:36;;;;;;;;;;;19.60;58.50;;;;;;5013429;28;19960;-50
2021/10/31 02:29:07;;;;;;;;;;;19.60;58.50;;;;;;5014711;28;20336;-53
2021/10/31 02:31:35;;;;;;;;;;;19.60;58.50;;;;;;5014232;28;19932;-52
2021/10/31 02:34:06;;;;;;;;;;;19.60;58.50;;;;;;5014526;28;19925;-51
2021/10/31 02:36:34;;;;;;;;;;;19.50;58.40;;;;;;5014118;28;20012;-54
2021/10/31 02:39:01;;;;;;;;;;;19.60;58.50;;;;;;5013155;28;20012;-51
2021/10/31 02:41:29;;;;;;;;;;;19.60;59.10;;;;;;5013860;28;19971;-53
2021/10/31 02:43:56;;;;;;;;;;;19.60;58.50;;;;;;4997064;28;20398;-54
2021/10/31 02:46:24;;;;;;;;;;;19.60;58.50;;;;;;5013345;28;19948;-54
2021/10/31 02:48:51;;;;;;;;;;;19.50;58.40;;;;;;4996701;28;20370;-53
2021/10/31 02:51:22;;;;;;;;;;;19.60;58.50;;;;;;5013364;28;19926;-52
2021/10/31 02:54:03;;;;;;;;;;;19.60;58.50;;;;;;5013273;28;19925;-49
2021/10/31 02:56:57;;;;;;;;;;;19.60;58.50;;;;;;4995126;28;19929;-50
2021/10/31 02:59:29;;;;;;;;;;;19.50;58.40;;;;;;4996084;28;19937;-47
2021/10/31 03:01:57;;;;;;;;;;;19.60;58.50;;;;;;4997088;28;19926;-52
2021/10/31 03:04:27;;;;;;;;;;;19.50;58.40;;;;;;4996452;28;19925;-49
2021/10/31 03:06:55;;;;;;;;;;;19.60;58.50;;;;;;4996523;28;19929;-49
2021/10/31 03:09:22;;;;;;;;;;;19.60;58.50;;;;;;4995613;28;20349;-49
2021/10/31 03:11:57;;;;;;;;;;;19.60;58.50;;;;;;5013766;28;20013;-52
2021/10/31 03:14:24;;;;;;;;;;;19.60;58.50;;;;;;4996522;28;19991;-52
2021/10/31 03:16:51;;;;;;;;;;;19.60;59.00;;;;;;5013285;28;20370;-52
2021/10/31 03:19:18;;;;;;;;;;;19.50;58.40;;;;;;5013845;28;19926;-52
2021/10/31 03:21:45;;;;;;;;;;;19.60;58.50;;;;;;4999672;28;19926;-53
2021/10/31 03:24:12;;;;;;;;;;;19.60;58.50;;;;;;5009364;28;20575;-53
2021/10/31 03:26:40;;;;;;;;;;;19.60;58.40;;;;;;5012398;28;19992;-48
2021/10/31 03:29:07;;;;;;;;;;;19.60;58.40;;;;;;5012403;28;20285;-51
2021/10/31 03:31:34;;;;;;;;;;;19.60;58.40;;;;;;5003213;28;19984;-54
2021/10/31 03:34:01;;;;;;;;;;;19.50;58.40;;;;;;5006572;28;19965;-50
2021/10/31 03:36:28;;;;;;;;;;;19.60;58.40;;;;;;5013085;28;19925;-49
2021/10/31 03:38:55;;;;;;;;;;;19.60;58.40;;;;;;5009002;28;20000;-47
2021/10/31 03:41:22;;;;;;;;;;;19.60;58.40;;;;;;5011755;28;20349;-48
2021/10/31 03:43:49;;;;;;;;;;;19.60;58.40;;;;;;5012964;28;20004;-48
2021/10/31 03:46:16;;;;;;;;;;;19.60;58.40;;;;;;5008172;28;19937;-52
2021/10/31 03:48:43;;;;;;;;;;;19.50;58.40;;;;;;4997090;28;19933;-52
2021/10/31 03:51:10;;;;;;;;;;;19.60;58.50;;;;;;4997245;28;20357;-54
2021/10/31 03:53:37;;;;;;;;;;;19.60;58.40;;;;;;4996968;28;19983;-51
2021/10/31 03:56:04;;;;;;;;;;;19.60;58.40;;;;;;4995342;28;19969;-52
2021/10/31 03:58:32;;;;;;;;;;;19.60;58.40;;;;;;4996862;28;19925;-53
2021/10/31 04:01:00;;;;;;;;;;;19.60;58.40;;;;;;4996386;28;19933;-54
2021/10/31 04:03:28;;;;;;;;;;;19.60;58.40;;;;;;4995957;28;19990;-54
2021/10/31 04:05:55;;;;;;;;;;;19.60;58.40;;;;;;4995606;28;19969;-54
2021/10/31 04:08:22;;;;;;;;;;;19.60;58.40;;;;;;4993381;28;20305;-49
2021/10/31 04:10:49;;;;;;;;;;;19.60;58.40;;;;;;4996556;28;20398;-52
2021/10/31 04:13:16;;;;;;;;;;;19.60;58.40;;;;;;4996374;28;19973;-52
2021/10/31 04:15:43;;;;;;;;;;;19.60;58.40;;;;;;4996949;28;19972;-47
2021/10/31 04:18:10;;;;;;;;;;;19.60;58.40;;;;;;5010108;28;19933;-46
2021/10/31 04:20:37;;;;;;;;;;;19.50;58.30;;;;;;5011654;28;19992;-48
2021/10/31 04:23:04;;;;;;;;;;;19.60;58.40;;;;;;5012527;28;20024;-54
2021/10/31 04:25:31;;;;;;;;;;;19.60;58.40;;;;;;5001656;28;20417;-48
2021/10/31 04:27:58;;;;;;;;;;;19.60;58.40;;;;;;5005014;28;19972;-47
2021/10/31 04:30:25;;;;;;;;;;;19.60;58.40;;;;;;5003350;28;19926;-53
2021/10/31 04:32:52;;;;;;;;;;;19.50;58.30;;;;;;4996363;28;19961;-53
2021/10/31 04:35:19;;;;;;;;;;;19.60;58.40;;;;;;5001111;28;19925;-49
2021/10/31 04:37:46;;;;;;;;;;;19.60;58.40;;;;;;5006632;28;20358;-49
2021/10/31 04:40:16;;;;;;;;;;;19.60;58.40;;;;;;4996604;28;20040;-50
2021/10/31 04:42:44;;;;;;;;;;;19.60;58.40;;;;;;4996892;28;19996;-48
2021/10/31 04:45:11;;;;;;;;;;;19.60;58.40;;;;;;4999901;28;19926;-49
2021/10/31 04:47:38;;;;;;;;;;;19.50;58.30;;;;;;5012599;28;19976;-48
2021/10/31 04:50:05;;;;;;;;;;;19.60;58.40;;;;;;5010541;28;20465;-50
2021/10/31 04:52:32;;;;;;;;;;;19.60;58.40;;;;;;4996337;28;19929;-48
2021/10/31 04:54:59;;;;;;;;;;;19.60;58.40;;;;;;5012142;28;19926;-51
2021/10/31 04:57:27;;;;;;;;;;;19.60;58.40;;;;;;4995484;28;21197;-54
2021/10/31 04:59:54;;;;;;;;;;;19.50;58.30;;;;;;5012237;28;20405;-48
2021/10/31 05:02:21;;;;;;;;;;;19.60;58.40;;;;;;4994962;28;19977;-48
2021/10/31 05:04:50;;;;;;;;;;;19.50;58.30;;;;;;4992358;28;20075;-50
2021/10/31 05:07:17;;;;;;;;;;;19.50;58.90;;;;;;4995716;28;19968;-48
2021/10/31 05:09:45;;;;;;;;;;;19.60;58.40;;;;;;5025928;28;19964;-50
2021/10/31 05:12:12;;;;;;;;;;;19.60;58.40;;;;;;5012100;28;20011;-52
2021/10/31 05:14:39;;;;;;;;;;;19.60;58.40;;;;;;5011296;28;19956;-53
2021/10/31 05:17:07;;;;;;;;;;;19.50;58.40;;;;;;5012069;28;19996;-52
2021/10/31 05:19:34;;;;;;;;;;;19.50;58.30;;;;;;5013402;28;19929;-51
2021/10/31 05:22:01;;;;;;;;;;;19.50;58.40;;;;;;5015656;28;19961;-51
2021/10/31 05:24:28;;;;;;;;;;;19.60;58.40;;;;;;5005567;28;19949;-50
2021/10/31 05:26:55;;;;;;;;;;;19.50;58.30;;;;;;5008824;28;19952;-53
2021/10/31 05:29:22;;;;;;;;;;;19.60;58.40;;;;;;5015875;28;19965;-53
2021/10/31 05:31:53;;;;;;;;;;;19.50;58.30;;;;;;5015628;28;19971;-51
2021/10/31 05:34:20;;;;;;;;;;;19.60;58.40;;;;;;5009264;28;20024;-53
2021/10/31 05:36:47;;;;;;;;;;;19.60;58.40;;;;;;4999514;28;19968;-52
2021/10/31 05:39:14;;;;;;;;;;;19.50;58.30;;;;;;5004117;28;19925;-55
2021/10/31 05:41:41;;;;;;;;;;;19.50;58.40;;;;;;5011228;28;19925;-54
2021/10/31 05:44:08;;;;;;;;;;;19.60;58.40;;;;;;4999153;28;20008;-52
2021/10/31 05:46:37;;;;;;;;;;;19.50;58.30;;;;;;5001779;28;19925;-54
2021/10/31 05:49:05;;;;;;;;;;;19.50;58.30;;;;;;5015104;28;20019;-51
2021/10/31 05:51:32;;;;;;;;;;;19.50;58.30;;;;;;5015224;28;20393;-53
2021/10/31 05:53:59;;;;;;;;;;;19.50;58.30;;;;;;5015432;28;19929;-51
2021/10/31 05:56:25;;;;;;;;;;;19.60;58.40;;;;;;4997688;28;19926;-54
2021/10/31 05:58:53;;;;;;;;;;;19.50;58.30;;;;;;5014112;28;20405;-51
2021/10/31 06:01:20;;;;;;;;;;;19.50;58.30;;;;;;5014232;28;20332;-53
2021/10/31 06:03:47;;;;;;;;;;;19.60;58.40;;;;;;4998695;28;20326;-52
2021/10/31 06:06:16;;;;;;;;;;;19.60;58.40;;;;;;4998552;28;19973;-54
2021/10/31 06:08:43;;;;;;;;;;;19.60;58.30;;;;;;5012803;28;19981;-53
2021/10/31 06:11:12;;;;;;;;;;;19.60;58.30;;;;;;5013792;28;20011;-49
2021/10/31 06:13:39;;;;;;;;;;;19.60;58.30;;;;;;5014738;28;19925;-51
2021/10/31 06:16:08;;;;;;;;;;;19.60;58.30;;;;;;5002242;28;19926;-53
2021/10/31 06:18:35;;;;;;;;;;;19.60;58.30;;;;;;4998481;28;19933;-53
2021/10/31 06:21:02;;;;;;;;;;;19.60;58.30;;;;;;5008428;28;20016;-50
2021/10/31 06:23:30;;;;;;;;;;;19.60;58.20;;;;;;5013804;28;19926;-54
2021/10/31 06:25:59;;;;;;;;;;;19.60;58.20;;;;;;5014711;28;19944;-54
2021/10/31 06:28:27;;;;;;;;;;;19.60;58.20;;;;;;5014671;28;19925;-53
2021/10/31 06:30:54;;;;;;;;;;;19.60;58.20;;;;;;5006440;28;19957;-51
2021/10/31 06:33:21;;;;;;;;;;;19.60;58.10;;;;;;4998155;28;19930;-48
2021/10/31 06:35:48;;;;;;;;;;;19.60;58.10;;;;;;4998345;28;19964;-53
2021/10/31 06:38:15;;;;;;;;;;;19.60;58.10;;;;;;5003058;28;19965;-52
2021/10/31 06:40:43;;;;;;;;;;;19.60;58.10;;;;;;5012973;28;19971;-48
2021/10/31 06:43:09;;;;;;;;;;;19.60;58.10;;;;;;5010284;28;20016;-52
2021/10/31 06:45:37;;;;;;;;;;;19.60;58.10;;;;;;5000136;28;19976;-50
2021/10/31 06:48:05;;;;;;;;;;;19.70;58.10;;;;;;5014051;28;19926;-53
2021/10/31 06:50:32;;;;;;;;;;;19.70;58.10;;;;;;5014280;28;19983;-51
2021/10/31 06:52:59;;;;;;;;;;;19.70;58.70;;;;;;5014488;28;19925;-50
2021/10/31 06:55:26;;;;;;;;;;;19.70;58.10;;;;;;5013770;28;19932;-52
2021/10/31 06:57:55;;;;;;;;;;;19.70;58.10;;;;;;5014185;28;19968;-51
2021/10/31 07:00:22;;;;;;;;;;;19.70;58.00;;;;;;5014044;28;20012;-52
2021/10/31 07:02:49;;;;;;;;;;;19.70;58.00;;;;;;5013003;28;20013;-54
2021/10/31 07:05:16;;;;;;;;;;;19.70;58.00;;;;;;5012590;28;19925;-53
2021/10/31 07:07:45;;;;;;;;;;;19.70;58.00;;;;;;4998682;28;20383;-51
2021/10/31 07:10:14;;;;;;;;;;;19.70;57.90;;;;;;5011806;28;20338;-50
2021/10/31 07:12:42;;;;;;;;;;;19.70;57.90;;;;;;5013541;28;20279;-47
2021/10/31 07:15:09;;;;;;;;;;;19.70;57.90;;;;;;5013621;28;19971;-53
2021/10/31 07:17:38;;;;;;;;;;;19.70;57.90;;;;;;5012144;28;19968;-50
2021/10/31 07:20:06;;;;;;;;;;;19.80;57.90;;;;;;5002741;28;20018;-47
2021/10/31 07:22:34;;;;;;;;;;;19.80;57.90;;;;;;5007771;28;19991;-48
2021/10/31 07:25:02;;;;;;;;;;;19.80;57.80;;;;;;5013541;28;19976;-52
2021/10/31 07:27:29;;;;;;;;;;;19.80;57.80;;;;;;5005042;28;20436;-53
2021/10/31 07:29:56;;;;;;;;;;;19.80;57.70;;;;;;4997433;28;19955;-50
2021/10/31 07:32:23;;;;;;;;;;;19.80;57.70;;;;;;4997467;28;19965;-51
2021/10/31 07:34:50;;;;;;;;;;;19.80;57.70;;;;;;5002874;28;19973;-53
2021/10/31 07:37:17;;;;;;;;;;;19.80;57.70;;;;;;5008628;28;19926;-47
2021/10/31 07:39:45;;;;;;;;;;;19.80;57.70;;;;;;5000878;28;19932;-51
2021/10/31 07:42:13;;;;;;;;;;;19.80;57.60;;;;;;5013469;28;19956;-52
2021/10/31 07:44:42;;;;;;;;;;;19.80;57.60;;;;;;4996887;28;19925;-52
2021/10/31 07:47:10;;;;;;;;;;;19.80;57.60;;;;;;4998546;28;20023;-53
2021/10/31 07:49:37;;;;;;;;;;;19.90;57.60;;;;;;5013351;28;19929;-52
2021/10/31 07:52:04;;;;;;;;;;;19.80;57.50;;;;;;5012008;28;19929;-51
2021/10/31 07:54:32;;;;;;;;;;;19.90;57.60;;;;;;4995755;28;20016;-54
2021/10/31 07:57:04;;;;;;;;;;;19.90;57.60;;;;;;5027604;28;19948;-52
2021/10/31 07:59:31;;;;;;;;;;;19.90;57.60;;;;;;5012660;28;20389;-55
2021/10/31 08:01:58;;;;;;;;;;;19.90;57.50;;;;;;4995490;28;20452;-50
2021/10/31 08:04:26;;;;;;;;;;;19.90;57.50;;;;;;4996148;28;19926;-52
2021/10/31 08:06:53;;;;;;;;;;;19.90;57.50;;;;;;4996499;28;19925;-53
2021/10/31 08:09:20;;;;;;;;;;;19.90;57.50;;;;;;5010997;28;19964;-51
2021/10/31 08:11:47;;;;;;;;;;;19.90;57.50;;;;;;5012153;28;20293;-51
2021/10/31 08:14:14;;;;;;;;;;;19.90;57.50;;;;;;5012192;28;19925;-54
2021/10/31 08:16:41;;;;;;;;;;;19.90;57.50;;;;;;5012662;28;19968;-53
2021/10/31 08:19:08;;;;;;;;;;;19.90;57.50;;;;;;5007160;28;19925;-51
2021/10/31 08:21:36;;;;;;;;;;;19.90;57.40;;;;;;5012401;28;19991;-52
2021/10/31 08:24:04;;;;;;;;;;;19.90;57.40;;;;;;5013030;28;19980;-51
2021/10/31 08:26:31;;;;;;;;;;;19.90;57.40;;;;;;5011683;28;20012;-49
2021/10/31 08:29:03;;;;;;;;;;;19.90;57.40;;;;;;5004701;28;20016;-50
2021/10/31 08:31:36;;;;;;;;;;;19.90;57.40;;;;;;5003747;28;20012;-52
2021/10/31 08:34:03;;;;;;;;;;;19.90;57.30;;;;;;5005411;28;20366;-49
2021/10/31 08:36:30;;;;;;;;;;;19.90;57.30;;;;;;5003045;28;19976;-53
2021/10/31 08:38:58;;;;;;;;;;;20.00;57.40;;;;;;5006882;28;19925;-49
2021/10/31 08:41:27;;;;;;;;;;;20.00;57.40;;;;;;4996186;28;20382;-53
2021/10/31 08:43:55;;;;;;;;;;;20.00;57.30;;;;;;5000207;28;19996;-53
2021/10/31 08:46:22;;;;;;;;;;;20.00;57.30;;;;;;5009108;28;20330;-50
2021/10/31 08:48:49;;;;;;;;;;;20.00;57.30;;;;;;4997244;28;19952;-50
2021/10/31 08:51:16;;;;;;;;;;;20.00;57.30;;;;;;5012203;28;19929;-53
2021/10/31 08:53:43;;;;;;;;;;;20.00;57.30;;;;;;5011903;28;20012;-53
2021/10/31 08:56:12;;;;;;;;;;;20.00;57.20;;;;;;4960618;28;19944;-51
2021/10/31 08:58:40;;;;;;;;;;;20.00;57.20;;;;;;4960072;28;19993;-52
2021/10/31 09:01:08;;;;;;;;;;;20.00;57.20;;;;;;4974957;28;19933;-50
2021/10/31 09:03:35;;;;;;;;;;;20.00;57.20;;;;;;4960015;28;20422;-52
2021/10/31 09:06:02;;;;;;;;;;;20.10;57.20;;;;;;4960821;28;20485;-50
2021/10/31 09:08:29;;;;;;;;;;;20.10;57.20;;;;;;4976692;28;20464;-53
2021/10/31 09:10:56;;;;;;;;;;;20.00;57.10;;;;;;4977204;28;19930;-51
2021/10/31 09:13:24;;;;;;;;;;;20.00;57.10;;;;;;4963092;28;20346;-49
2021/10/31 09:15:51;;;;;;;;;;;20.00;57.10;;;;;;4974190;28;19981;-48
2021/10/31 09:18:19;;;;;;;;;;;20.10;57.20;;;;;;4976426;28;19930;-49
2021/10/31 09:20:46;;;;;;;;;;;20.10;57.20;;;;;;4976499;28;19930;-52
2021/10/31 09:23:14;;;;;;;;;;;20.10;57.20;;;;;;4977262;28;20005;-51
2021/10/31 09:25:41;;;;;;;;;;;20.00;57.10;;;;;;4976704;28;19926;-49
2021/10/31 09:28:09;;;;;;;;;;;20.10;57.10;;;;;;4976454;28;19952;-50
2021/10/31 09:30:38;;;;;;;;;;;20.10;57.10;;;;;;4975644;28;19934;-52
2021/10/31 09:33:07;;;;;;;;;;;20.10;57.10;;;;;;4968985;28;20379;-52
2021/10/31 09:35:42;;;;;;;;;;;20.10;57.10;;;;;;4967083;28;19925;-53
2021/10/31 09:38:09;;;;;;;;;;;20.10;57.10;;;;;;4969673;28;19926;-54
2021/10/31 09:40:37;;;;;;;;;;;20.10;57.00;;;;;;4960353;28;19981;-54
2021/10/31 09:43:05;;;;;;;;;;;20.10;57.00;;;;;;4960156;28;20434;-55
2021/10/31 09:45:34;;;;;;;;;;;20.10;57.00;;;;;;4960320;28;19931;-52
2021/10/31 09:48:06;;;;;;;;;;;20.10;57.00;;;;;;4960196;28;20009;-48
2021/10/31 09:50:40;;;;;;;;;;;20.10;57.00;;;;;;4963541;28;19926;-52
2021/10/31 09:53:08;;;;;;;;;;;20.10;57.00;;;;;;4973073;28;19965;-49
2021/10/31 09:55:35;;;;;;;;;;;20.10;57.00;;;;;;4989750;28;20355;-49
2021/10/31 09:58:05;;;;;;;;;;;20.20;57.10;;;;;;5000573;28;19925;-53
2021/10/31 10:00:40;;;;;;;;;;;20.10;57.00;;;;;;5014853;28;20452;-52
2021/10/31 10:06:14;;;;;;;;;;;20.20;57.10;;;;;;4997595;28;19926;-51
2021/10/31 10:08:55;;;;;;;;;;;20.10;57.00;;;;;;4998718;28;19949;-54
2021/10/31 10:11:22;;;;;;;;;;;20.10;57.10;;;;;;5003454;28;19961;-49
2021/10/31 10:13:49;;;;;;;;;;;20.10;57.10;;;;;;5014939;28;19965;-52
2021/10/31 10:16:28;;;;;;;;;;;20.10;57.10;;;;;;5015139;28;19993;-53
2021/10/31 10:18:56;;;;;;;;;;;20.10;57.10;;;;;;5014632;28;19925;-52
2021/10/31 10:21:23;;;;;;;;;;;20.10;57.10;;;;;;5011132;28;19965;-50
2021/10/31 10:23:53;;;;;;;;;;;20.20;57.20;;;;;;5000856;28;19925;-54
2021/10/31 10:26:33;;;;;;;;;;;20.20;57.20;;;;;;5014386;28;19929;-50
2021/10/31 10:29:00;;;;;;;;;;;20.20;57.20;;;;;;5011907;28;19934;-54
2021/10/31 10:31:28;;;;;;;;;;;20.20;57.10;;;;;;4998277;28;19926;-54
2021/10/31 10:34:00;;;;;;;;;;;20.10;57.10;;;;;;5013520;28;20302;-54
2021/10/31 10:36:27;;;;;;;;;;;20.10;57.10;;;;;;5013218;28;19976;-54
2021/10/31 10:39:06;;;;;;;;;;;20.20;57.20;;;;;;5014208;28;20008;-54
2021/10/31 10:41:39;;;;;;;;;;;20.20;57.20;;;;;;5013406;28;19999;-54
2021/10/31 10:44:25;;;;;;;;;;;20.20;57.20;;;;;;4997726;28;20390;-54
2021/10/31 10:46:54;;;;;;;;;;;20.10;57.10;;;;;;4998196;28;19925;-53
2021/10/31 10:49:22;;;;;;;;;;;20.20;57.20;;;;;;4997920;28;20463;-54
2021/10/31 10:52:02;;;;;;;;;;;20.20;57.20;;;;;;4998480;28;19933;-53
2021/10/31 10:54:29;;;;;;;;;;;20.10;57.10;;;;;;5014021;28;20016;-54
2021/10/31 10:57:06;;;;;;;;;;;20.10;57.10;;;;;;5013721;28;19926;-54
2021/10/31 10:59:35;;;;;;;;;;;20.20;57.20;;;;;;5013172;28;19929;-54
2021/10/31 11:02:13;;;;;;;;;;;20.10;57.10;;;;;;4997696;28;19925;-56
2021/10/31 11:04:41;;;;;;;;;;;20.20;57.20;;;;;;4998453;28;20353;-53
2021/10/31 11:07:08;;;;;;;;;;;20.20;57.20;;;;;;5013863;28;19969;-53
2021/10/31 11:09:46;;;;;;;;;;;20.20;57.20;;;;;;5002927;28;19933;-53
2021/10/31 11:12:22;;;;;;;;;;;20.20;57.10;;;;;;4998420;28;19925;-54
2021/10/31 11:14:50;;;;;;;;;;;20.20;57.20;;;;;;4997909;28;20297;-54
2021/10/31 11:17:17;;;;;;;;;;;20.20;57.10;;;;;;4996454;28;19925;-53
2021/10/31 11:19:46;;;;;;;;;;;20.20;57.10;;;;;;5013801;28;19925;-54
2021/10/31 11:22:13;;;;;;;;;;;20.20;57.10;;;;;;4995115;28;19969;-51
2021/10/31 11:24:41;;;;;;;;;;;20.20;57.10;;;;;;4996406;28;19926;-55
2021/10/31 11:27:09;;;;;;;;;;;20.20;57.10;;;;;;4996322;28;19969;-50
2021/10/31 11:29:36;;;;;;;;;;;20.20;57.20;;;;;;4997305;28;20302;-49
2021/10/31 11:32:03;;;;;;;;;;;20.20;57.20;;;;;;5012077;28;19972;-53
2021/10/31 11:34:31;;;;;;;;;;;20.20;57.30;;;;;;4999497;28;20381;-54
2021/10/31 11:36:59;;;;;;;;;;;20.20;57.30;;;;;;5010136;28;20340;-50
2021/10/31 11:39:26;;;;;;;;;;;20.20;57.30;;;;;;5001123;28;19936;-52
2021/10/31 11:41:56;;;;;;;;;;;20.20;57.30;;;;;;5008550;28;20289;-54
2021/10/31 11:44:26;;;;;;;;;;;20.20;57.30;;;;;;5008958;28;19925;-53
2021/10/31 11:46:53;;;;;;;;;;;20.20;57.30;;;;;;5012955;28;19925;-52
2021/10/31 11:49:20;;;;;;;;;;;20.20;57.30;;;;;;5013332;28;20400;-51
2021/10/31 11:51:48;;;;;;;;;;;20.20;57.90;;;;;;5004813;28;19976;-52
2021/10/31 11:54:18;;;;;;;;;;;20.20;57.30;;;;;;5003879;28;20021;-55
2021/10/31 11:56:51;;;;;;;;;;;20.20;57.40;;;;;;5011824;28;19929;-53
2021/10/31 11:59:19;;;;;;;;;;;20.10;57.30;;;;;;5004818;28;19965;-52
2021/10/31 12:01:46;;;;;;;;;;;20.20;57.40;;;;;;5002878;28;19929;-50
2021/10/31 12:04:22;;;;;;;;;;;20.20;57.40;;;;;;5025891;28;19925;-51
2021/10/31 12:06:51;;;;;;;;;;;20.20;57.40;;;;;;5012948;28;20016;-52
2021/10/31 12:09:27;;;;;;;;;;;20.10;57.30;;;;;;5013263;28;19932;-54
2021/10/31 12:11:54;;;;;;;;;;;20.20;57.40;;;;;;5008216;28;20020;-53
2021/10/31 12:14:42;;;;;;;;;;;20.20;57.50;;;;;;4996526;28;19936;-48
2021/10/31 12:17:09;;;;;;;;;;;20.20;57.50;;;;;;4996723;28;19925;-50
2021/10/31 12:19:36;;;;;;;;;;;20.20;57.40;;;;;;5001441;28;20388;-48
2021/10/31 12:22:22;;;;;;;;;;;20.20;57.40;;;;;;5012794;28;19926;-52
2021/10/31 12:24:51;;;;;;;;;;;20.20;57.40;;;;;;5012538;28;20386;-52
2021/10/31 12:27:23;;;;;;;;;;;20.20;57.40;;;;;;5007946;28;19930;-52
2021/10/31 12:30:25;;;;;;;;;;;20.20;57.40;;;;;;4995734;28;19926;-49
2021/10/31 12:33:05;;;;;;;;;;;20.20;57.50;;;;;;4939717;29;20351;-53
2021/10/31 12:35:34;;;;;;;;;;;20.10;57.40;;;;;;4944124;29;20291;-53
2021/10/31 12:38:16;;;;;;;;;;;20.10;57.40;;;;;;4951912;29;19973;-50
2021/10/31 12:40:43;;;;;;;;;;;20.20;57.50;;;;;;4942574;29;19927;-54
2021/10/31 12:43:30;;;;;;;;;;;20.20;57.50;;;;;;4942264;29;19927;-54
2021/10/31 12:46:11;;;;;;;;;;;20.20;57.50;;;;;;4941694;29;19974;-54
2021/10/31 12:48:39;;;;;;;;;;;20.20;57.50;;;;;;4936101;29;19926;-53
2021/10/31 12:51:10;;;;;;;;;;;20.20;57.40;;;;;;4945156;29;20021;-54
2021/10/31 12:53:42;;;;;;;;;;;20.10;57.30;;;;;;4930606;29;20361;-52
2021/10/31 12:56:10;;;;;;;;;;;20.20;57.40;;;;;;4943341;29;20479;-52
2021/10/31 12:58:37;;;;;;;;;;;20.10;57.30;;;;;;4950648;29;20014;-50
2021/10/31 13:01:04;;;;;;;;;;;20.20;57.40;;;;;;4949494;29;19927;-49
2021/10/31 13:03:32;;;;;;;;;;;20.20;57.40;;;;;;4944737;29;20327;-50
2021/10/31 13:06:02;;;;;;;;;;;20.20;57.30;;;;;;4941748;28;19993;-51
2021/10/31 13:08:30;;;;;;;;;;;20.20;57.90;;;;;;4951578;28;19933;-51
2021/10/31 13:10:57;;;;;;;;;;;20.20;57.30;;;;;;5000793;28;20348;-50
2021/10/31 13:13:25;;;;;;;;;;;20.20;57.30;;;;;;5008221;28;20352;-49
2021/10/31 13:15:54;;;;;;;;;;;20.20;57.30;;;;;;4996035;28;20366;-50
2021/10/31 13:18:23;;;;;;;;;;;20.20;57.30;;;;;;4998789;28;20346;-48
2021/10/31 13:20:56;;;;;;;;;;;20.20;57.30;;;;;;5011894;28;20449;-49
2021/10/31 13:23:24;;;;;;;;;;;20.20;57.30;;;;;;5012197;28;19933;-49
2021/10/31 13:25:56;;;;;;;;;;;20.20;57.30;;;;;;5011241;28;19926;-50
2021/10/31 13:28:28;;;;;;;;;;;20.20;57.30;;;;;;4996328;28;19940;-53
2021/10/31 13:31:04;;;;;;;;;;;20.20;57.30;;;;;;4996105;28;19929;-48
2021/10/31 13:33:39;;;;;;;;;;;20.20;57.40;;;;;;4996664;28;19933;-49
2021/10/31 13:36:13;;;;;;;;;;;20.20;57.30;;;;;;5011034;28;20353;-51
2021/10/31 13:38:53;;;;;;;;;;;20.20;57.30;;;;;;5011838;28;19925;-53
2021/10/31 13:41:23;;;;;;;;;;;20.20;57.30;;;;;;5012824;28;19996;-48
2021/10/31 13:43:50;;;;;;;;;;;20.20;57.30;;;;;;5015559;28;20012;-50
2021/10/31 13:46:17;;;;;;;;;;;20.20;57.30;;;;;;5014270;28;19929;-52
2021/10/31 13:48:47;;;;;;;;;;;20.20;57.30;;;;;;4998047;28;19926;-50
2021/10/31 13:51:15;;;;;;;;;;;20.20;57.30;;;;;;5015057;28;20420;-52
2021/10/31 13:53:42;;;;;;;;;;;20.20;57.30;;;;;;4998288;28;19996;-50
2021/10/31 13:56:09;;;;;;;;;;;20.20;57.30;;;;;;5012795;28;19926;-51
2021/10/31 13:58:37;;;;;;;;;;;20.20;57.30;;;;;;5009846;28;19945;-51
2021/10/31 14:01:04;;;;;;;;;;;20.10;57.30;;;;;;4999535;28;19984;-50
2021/10/31 14:03:38;;;;;;;;;;;20.20;57.30;;;;;;5014594;28;20027;-49
2021/10/31 14:06:06;;;;;;;;;;;20.10;57.30;;;;;;5000384;28;19980;-52
2021/10/31 14:08:40;;;;;;;;;;;20.10;57.30;;;;;;4998754;28;19996;-52
2021/10/31 14:11:15;;;;;;;;;;;20.20;57.30;;;;;;5012840;28;20382;-49
2021/10/31 14:13:42;;;;;;;;;;;20.10;57.30;;;;;;5014769;28;20401;-52
2021/10/31 14:16:17;;;;;;;;;;;20.10;57.30;;;;;;5013431;28;19925;-50
2021/10/31 14:18:44;;;;;;;;;;;20.10;57.30;;;;;;5001374;28;19933;-54
2021/10/31 14:21:13;;;;;;;;;;;20.10;57.30;;;;;;5010723;28;19925;-52
2021/10/31 14:23:41;;;;;;;;;;;20.20;57.30;;;;;;5014759;28;20378;-54
2021/10/31 14:26:10;;;;;;;;;;;20.20;57.30;;;;;;5013312;28;19926;-51
2021/10/31 14:28:39;;;;;;;;;;;20.10;57.30;;;;;;5014413;28;19955;-53
2021/10/31 14:31:06;;;;;;;;;;;20.10;57.30;;;;;;5014737;28;19956;-49